createdAt,value
2022-10-05T00:00:45.083Z,99628.78
2022-10-05T00:03:13.081Z,99614.34
2022-10-05T00:05:41.200Z,99617.41
2022-10-05T00:08:15.735Z,99613.19
2022-10-05T00:10:45.489Z,99606.28
2022-10-05T00:13:20.573Z,99597.06
2022-10-05T00:15:49.469Z,99605.41
2022-10-05T00:18:20.713Z,99599.72
2022-10-05T00:20:49.748Z,99588.28
2022-10-05T00:23:25.152Z,99590.53
2022-10-05T00:25:52.804Z,99585.97
2022-10-05T00:28:28.026Z,99585.91
2022-10-05T00:31:00.215Z,99577.13
2022-10-05T00:33:28.531Z,99582.81
2022-10-05T00:35:56.145Z,99579.59
2022-10-05T00:38:24.129Z,99566.63
2022-10-05T00:41:07.566Z,99561.75
2022-10-05T00:44:01.672Z,99574.16
2022-10-05T00:46:53.504Z,99548.31
2022-10-05T00:50:10.852Z,99547.34
2022-10-05T00:53:05.141Z,99563.25
2022-10-05T00:56:11.173Z,99555.19
2022-10-05T00:59:14.658Z,99546.50
2022-10-05T01:02:03.007Z,99555.38
2022-10-05T01:05:07.920Z,99543.81
2022-10-05T01:08:02.489Z,99551.88
2022-10-05T01:10:47.390Z,99536.59
2022-10-05T01:13:21.089Z,99531.41
2022-10-05T01:15:58.281Z,99527.88
2022-10-05T01:18:40.844Z,99522.34
2022-10-05T01:21:27.320Z,99532.41
2022-10-05T01:24:00.936Z,99523.53
2022-10-05T01:26:59.669Z,99510.28
2022-10-05T01:29:38.503Z,99520.03
2022-10-05T01:32:18.575Z,99521.84
2022-10-05T01:34:55.243Z,99531.59
2022-10-05T01:37:54.259Z,99535.47
2022-10-05T01:40:32.370Z,99536.13
2022-10-05T01:43:12.138Z,99538.63
2022-10-05T01:46:04.603Z,99533.25
2022-10-05T01:48:47.489Z,99520.66
2022-10-05T01:51:32.158Z,99510.75
2022-10-05T01:54:26.496Z,99508.28
2022-10-05T01:57:22.011Z,99505.41
2022-10-05T02:00:04.128Z,99501.72
2022-10-05T02:02:52.878Z,99495.53
2022-10-05T02:05:38.046Z,99486.44
2022-10-05T02:08:22.188Z,99486.44
2022-10-05T02:11:02.645Z,99474.69
2022-10-05T02:14:01.332Z,99476.38
2022-10-05T02:16:35.305Z,99477.22
2022-10-05T02:19:12.027Z,99474.53
2022-10-05T02:21:47.381Z,99478.88
2022-10-05T02:24:27.344Z,99473.69
2022-10-05T02:26:56.864Z,99461.94
2022-10-05T02:29:28.901Z,99462.75
2022-10-05T02:32:03.058Z,99453.69
2022-10-05T02:34:42.708Z,99452.22
2022-10-05T02:38:09.354Z,99440.63
2022-10-05T02:41:07.378Z,99439.81
2022-10-05T02:43:44.290Z,99420.03
2022-10-05T02:46:25.284Z,99427.22
2022-10-05T02:49:15.502Z,99421.69
2022-10-05T02:52:03.694Z,99427.69
2022-10-05T02:55:07.057Z,99423.34
2022-10-05T02:58:02.880Z,99428.72
2022-10-05T03:00:37.019Z,99424.38
2022-10-05T03:03:16.032Z,99403.94
2022-10-05T03:05:53.705Z,99418.34
2022-10-05T03:08:42.597Z,99410.50
2022-10-05T03:11:28.547Z,99406.78
2022-10-05T03:14:22.892Z,99412.50
2022-10-05T03:17:09.378Z,99426.97
2022-10-05T03:20:04.322Z,99427.13
2022-10-05T03:22:54.785Z,99444.44
2022-10-05T03:26:06.304Z,99442.13
2022-10-05T03:28:56.605Z,99445.34
2022-10-05T03:31:55.410Z,99450.44
2022-10-05T03:34:50.842Z,99455.03
2022-10-05T03:37:21.429Z,99458.44
2022-10-05T03:40:19.693Z,99454.16
2022-10-05T03:43:19.005Z,99445.72
2022-10-05T03:46:08.820Z,99451.97
2022-10-05T03:48:50.198Z,99452.31
2022-10-05T03:51:47.678Z,99444.16
2022-10-05T03:54:23.232Z,99443.69
2022-10-05T03:57:08.858Z,99457.59
2022-10-05T03:59:49.396Z,99469.03
2022-10-05T04:02:31.340Z,99473.06
2022-10-05T04:05:22.992Z,99463.06
2022-10-05T04:08:08.053Z,99466.09
2022-10-05T04:10:41.530Z,99475.66
2022-10-05T04:13:26.041Z,99482.41
2022-10-05T04:16:06.820Z,99490.16
2022-10-05T04:18:50.638Z,99490.53
2022-10-05T04:21:24.056Z,99494.91
2022-10-05T04:24:27.655Z,99506.66
2022-10-05T04:27:00.607Z,99527.09
2022-10-05T04:29:33.747Z,99539.47
2022-10-05T04:32:04.209Z,99540.84
2022-10-05T04:35:10.120Z,99551.72
2022-10-05T04:37:56.689Z,99547.03
2022-10-05T04:40:50.580Z,99564.41
2022-10-05T04:43:59.662Z,99558.91
2022-10-05T04:46:38.568Z,99563.41
2022-10-05T04:49:25.246Z,99568.94
2022-10-05T04:52:18.393Z,99559.75
2022-10-05T04:55:01.208Z,99561.09
2022-10-05T04:57:32.603Z,99564.59
2022-10-05T05:00:25.060Z,99581.81
2022-10-05T05:03:20.356Z,99585.31
2022-10-05T05:06:16.438Z,99595.88
2022-10-05T05:09:17.754Z,99595.88
2022-10-05T05:12:03.950Z,99605.03
2022-10-05T05:14:33.605Z,99599.84
2022-10-05T05:17:48.368Z,99588.66
2022-10-05T05:20:24.875Z,99605.88
2022-10-05T05:23:18.954Z,99607.00
2022-10-05T05:26:19.614Z,99604.50
2022-10-05T05:29:06.724Z,99601.16
2022-10-05T05:31:43.391Z,99597.81
2022-10-05T05:34:40.398Z,99606.16
2022-10-05T05:37:29.764Z,99595.63
2022-10-05T05:40:32.568Z,99596.63
2022-10-05T05:43:22.453Z,99595.97
2022-10-05T05:46:00.698Z,99592.78
2022-10-05T05:48:42.186Z,99601.13
2022-10-05T05:51:20.040Z,99596.94
2022-10-05T05:54:25.510Z,99605.28
2022-10-05T05:57:11.031Z,99605.28
2022-10-05T06:00:05.790Z,99603.13
2022-10-05T06:02:54.897Z,99605.94
2022-10-05T06:05:47.178Z,99594.56
2022-10-05T06:08:25.657Z,99614.47
2022-10-05T06:11:15.604Z,99615.75
2022-10-05T06:13:43.960Z,99631.16
2022-10-05T06:16:51.281Z,99624.44
2022-10-05T06:19:23.840Z,99636.81
2022-10-05T06:22:34.787Z,99622.94
2022-10-05T06:25:23.409Z,99629.44
2022-10-05T06:28:12.934Z,99629.56
2022-10-05T06:31:26.758Z,99627.22
2022-10-05T06:34:06.505Z,99627.41
2022-10-05T06:37:05.574Z,99638.28
2022-10-05T06:39:33.790Z,99644.59
2022-10-05T06:42:45.100Z,99649.28
2022-10-05T06:54:41.672Z,99651.25
2022-10-05T06:57:10.195Z,99657.28
2022-10-05T06:59:58.027Z,99652.91
2022-10-05T07:02:29.420Z,99642.91
2022-10-05T07:05:12.418Z,99654.28
2022-10-05T07:08:04.366Z,99657.63
2022-10-05T07:10:51.710Z,99647.44
2022-10-05T07:13:51.593Z,99658.66
2022-10-05T07:16:31.635Z,99661.19
2022-10-05T07:19:19.295Z,99665.19
2022-10-05T07:22:24.307Z,99658.69
2022-10-05T07:25:00.829Z,99659.22
2022-10-05T07:27:34.642Z,99666.06
2022-10-05T07:30:06.007Z,99666.59
2022-10-05T07:33:00.186Z,99670.44
2022-10-05T07:36:11.869Z,99665.63
2022-10-05T07:39:05.628Z,99681.84
2022-10-05T07:41:44.245Z,99673.00
2022-10-05T07:44:20.091Z,99673.34
2022-10-05T07:47:12.044Z,99665.47
2022-10-05T07:49:52.160Z,99675.53
2022-10-05T07:52:34.525Z,99685.34
2022-10-05T07:55:03.132Z,99686.88
2022-10-05T07:58:06.100Z,99686.03
2022-10-05T08:00:50.148Z,99693.91
2022-10-05T08:03:40.880Z,99697.09
2022-10-05T08:06:15.566Z,99704.25
2022-10-05T08:08:57.516Z,99711.63
2022-10-05T08:11:31.324Z,99711.75
2022-10-05T08:14:07.148Z,99716.47
2022-10-05T08:16:38.415Z,99707.59
2022-10-05T08:19:16.464Z,99715.75
2022-10-05T08:21:50.956Z,99725.94
2022-10-05T08:24:54.119Z,99721.63
2022-10-05T08:27:33.338Z,99728.63
2022-10-05T08:30:05.862Z,99724.94
2022-10-05T08:32:45.513Z,99730.28
2022-10-05T08:35:40.850Z,99740.00
2022-10-05T08:38:14.866Z,99729.97
2022-10-05T08:40:48.531Z,99721.94
2022-10-05T08:43:42.097Z,99722.94
2022-10-05T08:46:47.632Z,99737.84
2022-10-05T08:49:34.919Z,99748.38
2022-10-05T08:52:24.563Z,99749.38
2022-10-05T08:54:52.334Z,99757.38
2022-10-05T08:57:53.912Z,99757.06
2022-10-05T09:00:32.267Z,99753.09
2022-10-05T09:03:08.856Z,99755.78
2022-10-05T09:05:58.521Z,99757.28
2022-10-05T09:08:41.264Z,99751.94
2022-10-05T09:11:18.728Z,99748.13
2022-10-05T09:14:10.534Z,99746.41
2022-10-05T09:17:26.028Z,99756.13
2022-10-05T09:20:38.899Z,99750.78
2022-10-05T09:23:26.418Z,99741.75
2022-10-05T09:26:08.278Z,99748.63
2022-10-05T09:29:20.633Z,99750.28
2022-10-05T09:32:04.367Z,99761.81
2022-10-05T09:34:49.317Z,99756.97
2022-10-05T09:37:20.238Z,99751.47
2022-10-05T09:40:31.342Z,99741.09
2022-10-05T09:43:21.887Z,99751.47
2022-10-05T09:46:40.328Z,99759.66
2022-10-05T09:49:17.034Z,99766.53
2022-10-05T09:52:08.466Z,99756.50
2022-10-05T09:54:44.815Z,99766.88
2022-10-05T09:57:30.290Z,99768.22
2022-10-05T10:00:16.577Z,99787.47
2022-10-05T10:02:50.376Z,99780.94
2022-10-05T10:05:34.049Z,99795.84
2022-10-05T10:08:20.833Z,99783.13
2022-10-05T10:11:23.471Z,99782.97
2022-10-05T10:14:15.477Z,99791.50
2022-10-05T10:17:04.187Z,99778.81
2022-10-05T10:19:56.358Z,99786.53
2022-10-05T10:22:51.322Z,99786.03
2022-10-05T10:25:34.909Z,99798.28
2022-10-05T10:28:05.779Z,99804.63
2022-10-05T10:30:45.420Z,99807.13
2022-10-05T10:33:19.195Z,99804.47
2022-10-05T10:36:16.118Z,99813.84
2022-10-05T10:38:55.762Z,99822.53
2022-10-05T10:41:51.210Z,99839.88
2022-10-05T10:44:30.948Z,99839.00
2022-10-05T10:47:35.873Z,99838.28
2022-10-05T10:50:28.418Z,99844.78
2022-10-05T10:53:10.563Z,99854.91
2022-10-05T10:55:38.032Z,99846.97
2022-10-05T10:58:18.176Z,99836.91
2022-10-05T11:00:54.672Z,99832.50
2022-10-05T11:03:31.683Z,99840.69
2022-10-05T11:06:17.210Z,99841.53
2022-10-05T11:09:03.602Z,99833.50
2022-10-05T11:11:51.303Z,99820.31
2022-10-05T11:14:31.498Z,99830.84
2022-10-05T11:17:22.218Z,99840.72
2022-10-05T11:20:31.818Z,99838.34
2022-10-05T11:23:13.298Z,99837.59
2022-10-05T11:26:02.283Z,99837.66
2022-10-05T11:28:48.432Z,99844.72
2022-10-05T11:31:54.299Z,99855.63
2022-10-05T11:34:46.531Z,99845.78
2022-10-05T11:37:21.260Z,99842.81
2022-10-05T11:40:29.796Z,99838.63
2022-10-05T11:43:11.488Z,99839.13
2022-10-05T11:45:51.021Z,99852.19
2022-10-05T11:48:39.953Z,99839.13
2022-10-05T11:51:29.079Z,99849.19
2022-10-05T11:54:17.635Z,99849.53
2022-10-05T11:56:53.759Z,99840.00
2022-10-05T11:59:40.568Z,99849.53
2022-10-05T12:02:27.322Z,99847.00
2022-10-05T12:05:14.063Z,99849.63
2022-10-05T12:07:56.971Z,99848.47
2022-10-05T12:10:44.045Z,99849.97
2022-10-05T12:13:33.724Z,99845.78
2022-10-05T12:16:07.350Z,99860.22
2022-10-05T12:18:39.273Z,99862.25
2022-10-05T12:21:30.907Z,99860.56
2022-10-05T12:24:07.419Z,99861.09
2022-10-05T12:26:50.244Z,99871.47
2022-10-05T12:29:26.962Z,99861.75
2022-10-05T12:31:54.473Z,99861.59
2022-10-05T12:34:34.950Z,99863.59
2022-10-05T12:37:29.907Z,99871.31
2022-10-05T12:40:12.351Z,99867.63
2022-10-05T12:42:50.424Z,99870.66
2022-10-05T12:45:46.341Z,99873.00
2022-10-05T12:48:42.386Z,99874.31
2022-10-05T12:51:22.418Z,99878.53
2022-10-05T12:54:20.750Z,99876.47
2022-10-05T12:57:17.514Z,99877.84
2022-10-05T12:59:53.098Z,99875.63
2022-10-05T13:02:44.165Z,99878.16
2022-10-05T13:05:11.768Z,99885.00
2022-10-05T13:07:57.391Z,99886.34
2022-10-05T13:10:31.473Z,99893.03
2022-10-05T13:13:37.563Z,99898.41
2022-10-05T13:16:17.578Z,99892.75
2022-10-05T13:19:06.889Z,99891.72
2022-10-05T13:21:57.181Z,99906.31
2022-10-05T13:24:28.800Z,99920.19
2022-10-05T13:27:14.289Z,99911.47
2022-10-05T13:30:02.826Z,99928.44
2022-10-05T13:32:39.183Z,99929.09
2022-10-05T13:35:22.258Z,99928.78
2022-10-05T13:38:00.365Z,99935.28
2022-10-05T13:41:05.235Z,99936.66
2022-10-05T13:44:03.765Z,99942.63
2022-10-05T13:46:49.590Z,99964.53
2022-10-05T13:49:41.658Z,99969.72
2022-10-05T13:52:42.314Z,99968.97
2022-10-05T13:55:40.067Z,99980.09
2022-10-05T13:58:19.730Z,99971.34
2022-10-05T14:00:53.399Z,99967.94
2022-10-05T14:03:31.414Z,99962.56
2022-10-05T14:06:01.665Z,99977.09
2022-10-05T14:08:35.449Z,99983.13
2022-10-05T14:11:36.635Z,99996.53
2022-10-05T14:14:17.493Z,99980.56
2022-10-05T14:16:57.534Z,99986.38
2022-10-05T14:19:43.282Z,99989.19
2022-10-05T14:22:24.284Z,99984.56
2022-10-05T14:25:03.093Z,99978.53
2022-10-05T14:27:34.678Z,99979.53
2022-10-05T14:30:19.219Z,99980.41
2022-10-05T14:32:56.363Z,99982.56
2022-10-05T14:35:29.490Z,99987.59
2022-10-05T14:38:00.369Z,99998.31
2022-10-05T14:40:34.951Z,99999.66
2022-10-05T14:43:18.972Z,99999.63
2022-10-05T14:45:56.676Z,99998.66
2022-10-05T14:48:29.340Z,100008.19
2022-10-05T14:50:59.628Z,100002.66
2022-10-05T14:53:56.218Z,100003.78
2022-10-05T14:56:42.523Z,100015.81
2022-10-05T14:59:14.151Z,100012.94
2022-10-05T15:02:23.500Z,100014.28
2022-10-05T15:05:01.575Z,100013.97
2022-10-05T15:07:36.231Z,100008.44
2022-10-05T15:10:19.728Z,100006.84
2022-10-05T15:12:48.503Z,100007.19
2022-10-05T15:15:34.530Z,100015.53
2022-10-05T15:18:15.062Z,100016.72
2022-10-05T15:21:09.125Z,100026.84
2022-10-05T15:23:47.563Z,100033.03
2022-10-05T15:26:41.651Z,100038.00
2022-10-05T15:29:30.427Z,100049.53
2022-10-05T15:32:14.719Z,100048.03
2022-10-05T15:34:55.688Z,100047.00
2022-10-05T15:37:31.992Z,100044.66
2022-10-05T15:40:04.954Z,100048.66
2022-10-05T15:42:45.309Z,100057.00
2022-10-05T15:45:20.521Z,100068.22
2022-10-05T15:48:03.187Z,100073.72
2022-10-05T15:50:37.843Z,100075.06
2022-10-05T15:53:15.316Z,100083.78
2022-10-05T15:56:13.253Z,100085.94
2022-10-05T15:58:53.085Z,100089.78
2022-10-05T16:01:40.387Z,100097.59
2022-10-05T16:04:25.060Z,100094.34
2022-10-05T16:07:14.155Z,100107.00
2022-10-05T16:10:02.325Z,100123.00
2022-10-05T16:12:54.967Z,100119.50
2022-10-05T16:15:33.428Z,100118.28
2022-10-05T16:18:18.305Z,100131.25
2022-10-05T16:21:44.327Z,100145.41
2022-10-05T16:24:36.304Z,100149.31
2022-10-05T16:27:13.487Z,100162.38
2022-10-05T16:30:01.255Z,100182.72
2022-10-05T16:32:36.922Z,100177.75
2022-10-05T16:35:19.969Z,100190.28
2022-10-05T16:38:08.857Z,100187.66
2022-10-05T16:41:02.086Z,100192.09
2022-10-05T16:44:03.573Z,100203.78
2022-10-05T16:47:22.881Z,100216.31
2022-10-05T16:50:24.795Z,100228.59
2022-10-05T16:53:12.113Z,100235.88
2022-10-05T16:55:45.760Z,100250.09
2022-10-05T16:58:49.688Z,100265.41
2022-10-05T17:01:43.794Z,100257.53
2022-10-05T17:04:21.010Z,100258.25
2022-10-05T17:06:58.601Z,100260.66
2022-10-05T17:09:44.719Z,100266.56
2022-10-05T17:12:31.198Z,100272.63
2022-10-05T17:15:36.279Z,100287.91
2022-10-05T17:18:41.236Z,100290.59
2022-10-05T17:21:18.037Z,100309.44
2022-10-05T17:23:56.011Z,100314.75
2022-10-05T17:26:23.522Z,100319.09
2022-10-05T17:29:12.734Z,100320.22
2022-10-05T17:32:33.544Z,100328.94
2022-10-05T17:35:01.087Z,100335.00
2022-10-05T17:37:43.936Z,100339.47
2022-10-05T17:40:38.720Z,100342.13
2022-10-05T17:43:15.452Z,100349.31
2022-10-05T17:45:42.934Z,100358.31
2022-10-05T17:48:12.151Z,100354.91
2022-10-05T17:50:58.110Z,100359.31
2022-10-05T17:54:02.635Z,100356.75
2022-10-05T17:56:33.855Z,100362.53
2022-10-05T17:59:04.863Z,100367.84
2022-10-05T18:01:38.305Z,100378.34
2022-10-05T18:04:11.907Z,100376.09
2022-10-05T18:06:59.104Z,100383.00
2022-10-05T18:09:27.724Z,100386.22
2022-10-05T18:12:24.984Z,100391.69
2022-10-05T18:15:14.363Z,100396.31
2022-10-05T18:17:58.731Z,100406.22
2022-10-05T18:20:29.143Z,100411.38
2022-10-05T18:23:09.617Z,100424.97
2022-10-05T18:25:48.597Z,100430.19
2022-10-05T18:28:35.029Z,100436.09
2022-10-05T18:31:21.352Z,100435.56
2022-10-05T18:33:57.175Z,100437.72
2022-10-05T18:36:38.204Z,100441.94
2022-10-05T18:39:26.180Z,100444.88
2022-10-05T18:42:08.878Z,100447.78
2022-10-05T18:44:40.301Z,100457.72
2022-10-05T18:47:29.309Z,100466.22
2022-10-05T18:50:10.986Z,100474.38
2022-10-05T18:53:09.121Z,100475.78
2022-10-05T18:55:44.481Z,100481.84
2022-10-05T18:58:22.372Z,100483.13
2022-10-05T19:01:11.147Z,100483.38
2022-10-05T19:04:09.767Z,100490.66
2022-10-05T19:06:54.429Z,100499.38
2022-10-05T19:09:59.794Z,100504.56
2022-10-05T19:12:46.807Z,100507.25
2022-10-05T19:15:26.223Z,100506.66
2022-10-05T19:18:27.277Z,100505.97
2022-10-05T19:21:35.625Z,100516.31
2022-10-05T19:24:46.676Z,100515.69
2022-10-05T19:27:17.119Z,100518.50
2022-10-05T19:29:50.813Z,100521.44
2022-10-05T19:32:34.220Z,100511.88
2022-10-05T19:35:29.715Z,100524.50
2022-10-05T19:38:15.894Z,100531.78
2022-10-05T19:41:12.506Z,100537.25
2022-10-05T19:43:42.968Z,100542.31
2022-10-05T19:46:30.819Z,100543.63
2022-10-05T19:49:00.247Z,100551.94
2022-10-05T19:51:31.570Z,100561.41
2022-10-05T19:54:13.820Z,100566.19
2022-10-05T19:56:55.568Z,100574.66
2022-10-05T19:59:27.687Z,100584.81
2022-10-05T20:01:57.708Z,100586.22
2022-10-05T20:04:55.030Z,100592.16
2022-10-05T20:07:23.720Z,100596.13
2022-10-05T20:09:54.855Z,100599.09
2022-10-05T20:12:23.052Z,100598.16
2022-10-05T20:15:37.245Z,100624.22
2022-10-05T20:18:54.231Z,100615.78
2022-10-05T20:21:41.571Z,100618.03
2022-10-05T20:24:21.599Z,100645.69
2022-10-05T20:27:02.447Z,100655.25
2022-10-05T20:29:38.313Z,100655.97
2022-10-05T20:32:08.316Z,100664.84
2022-10-05T20:34:37.563Z,100676.34
2022-10-05T20:37:05.110Z,100683.53
2022-10-05T20:39:32.729Z,100666.94
2022-10-05T20:42:00.423Z,100674.94
2022-10-05T20:44:27.936Z,100670.69
2022-10-05T20:46:55.663Z,100669.97
2022-10-05T20:49:25.833Z,100685.03
2022-10-05T20:51:55.828Z,100691.34
2022-10-05T20:54:25.352Z,100684.31
2022-10-05T20:56:55.760Z,100704.94
2022-10-05T20:59:24.849Z,100699.88
2022-10-05T21:01:52.381Z,100707.03
2022-10-05T21:04:25.291Z,100715.19
2022-10-05T21:06:53.970Z,100707.28
2022-10-05T21:09:21.584Z,100703.06
2022-10-05T21:11:51.665Z,100712.91
2022-10-05T21:14:19.201Z,100715.56
2022-10-05T21:16:46.730Z,100740.44
2022-10-05T21:19:14.813Z,100760.56
2022-10-05T21:21:44.359Z,100754.41
2022-10-05T21:24:14.047Z,100757.31
2022-10-05T21:26:42.993Z,100755.84
2022-10-05T21:29:12.873Z,100761.34
2022-10-05T21:31:40.783Z,100772.28
2022-10-05T21:34:08.640Z,100778.84
2022-10-05T21:36:36.149Z,100768.44
2022-10-05T21:39:03.871Z,100774.72
2022-10-05T21:41:31.308Z,100782.88
2022-10-05T21:43:58.824Z,100794.38
2022-10-05T21:46:26.800Z,100786.13
2022-10-05T21:48:55.209Z,100791.94
2022-10-05T21:51:25.154Z,100797.88
2022-10-05T21:54:01.846Z,100813.50
2022-10-05T21:56:35.002Z,100808.63
2022-10-05T21:59:06.477Z,100805.69
2022-10-05T22:01:36.114Z,100804.72
2022-10-05T22:04:05.145Z,100814.28
2022-10-05T22:06:34.191Z,100806.03
2022-10-05T22:09:02.526Z,100817.56
2022-10-05T22:11:31.712Z,100817.66
2022-10-05T22:14:02.828Z,100816.97
2022-10-05T22:16:33.391Z,100814.81
2022-10-05T22:19:06.123Z,100821.50
2022-10-05T22:21:38.223Z,100821.75
2022-10-05T22:24:05.988Z,100840.44
2022-10-05T22:26:34.869Z,100825.53
2022-10-05T22:29:03.364Z,100851.25
2022-10-05T22:31:30.980Z,100853.78
2022-10-05T22:33:58.599Z,100851.13
2022-10-05T22:36:26.460Z,100854.78
2022-10-05T22:38:53.975Z,100852.94
2022-10-05T22:41:21.457Z,100848.59
2022-10-05T22:43:50.860Z,100850.53
2022-10-05T22:46:19.363Z,100852.00
2022-10-05T22:48:46.926Z,100861.09
2022-10-05T22:51:14.431Z,100858.69
2022-10-05T22:53:41.974Z,100868.78
2022-10-05T22:56:13.651Z,100881.50
2022-10-05T22:58:42.239Z,100876.44
2022-10-05T23:01:13.299Z,100883.69
2022-10-05T23:03:41.389Z,100880.31
2022-10-05T23:06:17.188Z,100887.72
2022-10-05T23:08:46.032Z,100893.19
2022-10-05T23:11:22.662Z,100894.75
2022-10-05T23:13:52.381Z,100895.50
2022-10-05T23:16:22.459Z,100895.50
2022-10-05T23:18:51.814Z,100891.00
2022-10-05T23:21:20.936Z,100891.69
2022-10-05T23:23:51.075Z,100888.94
2022-10-05T23:26:23.702Z,100891.22
2022-10-05T23:28:53.768Z,100894.47
2022-10-05T23:31:24.597Z,100900.28
2022-10-05T23:33:53.549Z,100890.94
2022-10-05T23:36:25.656Z,100886.91
2022-10-05T23:38:54.021Z,100893.72
2022-10-05T23:41:21.659Z,100898.66
2022-10-05T23:43:49.311Z,100893.66
2022-10-05T23:46:17.784Z,100902.25
2022-10-05T23:48:45.587Z,100909.06
2022-10-05T23:51:14.496Z,100904.56
2022-10-05T23:53:42.146Z,100914.75
2022-10-05T23:56:09.663Z,100923.94
2022-10-05T23:58:37.390Z,100926.13
